Share

Minto, ND (58261)

Grafton Municipal (KGAF) Elev 823 ft | 48.40 °N, 97.37 °W | Change Station
Active Advisory: Flood Warning

Current weather conditions updated 13 minutes ago

Partly Cloudy
Partly Cloudy
48 °F
Feels Like 48 °F
N
20
Wind Variable Wind from SE
Gusts 29 mph
Sunrise 6:33 AM
Sunset 8:24 PM
Moon Waning Gibbous

Today is forecast to be Much Warmer than yesterday.

Pressure 30.11 in
Visibility 10.0 miles
Clouds Few 6500 ft
Dew Point 28 °F
Humidity 46%
Rainfall 0.00 in
Snow Depth Not available.
UV 6 out of 16
Pollen 9.00 out of 12
Air Quality Not available.
Flu Activity Sporadic
METAR KGAF 182035Z AUTO 13017G25KT 10SM FEW065 09/M02 A3011 RMK AO2

More Conditions Fewer Conditions

Pressure 30.11 in
Visibility 10.0 miles
Clouds Few 6500 ft
Dew Point 28 °F
Humidity 46%
Rainfall 0.00 in
Snow Depth Not available.
UV 6 out of 16
Pollen 9.00 out of 12
Air Quality Not available.
Flu Activity Sporadic
METAR KGAF 182035Z AUTO 13017G25KT 10SM FEW065 09/M02 A3011 RMK AO2

More Conditions Fewer Conditions

10-Day Weather Forecast

Almanac

Astronomy

Apr. 18, 2014 Rise Set
Actual Time 6:33 AM CDT 8:24 PM CDT
Civil Twilight 6:00 AM CDT 8:57 PM CDT
Nautical Twilight 5:19 AM CDT 9:38 PM CDT
Astronomical Twilight 4:34 AM CDT 10:24 PM CDT
Moon No Moon Rise 8:46 AM CDT
Length of Visible Light 14h 57m
Length of Day
13h 51m
Tomorrow will be 3m 20s longer.
Waning Gibbous, 86% of the Moon is Illuminated
Today
Waning Gibbous
Apr 22
Last Quarter
Apr 29
New
May 6
First Quarter
May 14
Full

Today's Extremes

State Highs State Lows

Community

  • What's for Lunch?
    What's for Lunch?
  • SUNRISE THROUGH THE TREES.
    SUNRISE THROUGH THE TREES.
  • Dog Wood Blossoms
    Dog Wood Blossoms
  • Morning Light
    Morning Light
  • New Day
    New Day

WunderPhotos

Upload Photos

1,702,495 photos uploaded!

WunderBlogs® & News

Nearby

Snow Depth

Station Depth Elevation
No new snow has been reported.

Coastal Water Temperatures

Place Temperature
No Stations Reporting

Earthquake Activity

City Distance Mag. Time & Date
No recent earthquake activity has been reported nearby.
Minimum magnitude displayed is 2.5.

Nearby Weather Stations

There are no personal weather stations in this area.

What do you think?

We're not finished. Please let us know what you like, what you don't like, and what you are still missing.